Time;durP1;ratioP1;P1;durP2;ratioP2;P2;SDS_P1;SDS_P2;PMS_P1;PMS_P2;Temp;Humidity;BMP_temperature;BMP_pressure;BME280_temperature;BME280_humidity;BME280_pressure;Samples;Min_cycle;Max_cycle;Signal;HPM_P1;HPM_P2
2022/03/24 00:02:13;;;;;;;;;20.00;17.75;;;;;18.34;43.89;103059.63;4933345;29;8833;-72
2022/03/24 00:04:39;;;;;;;;;13.00;13.00;;;;;18.34;43.57;103057.00;4932642;29;8821;-71
2022/03/24 00:07:05;;;;;;;;;18.75;17.25;;;;;18.33;43.88;103059.63;4932663;29;10431;-71
2022/03/24 00:09:30;;;;;;;;;10.75;9.50;;;;;18.32;43.87;103053.44;4933574;29;8905;-71
2022/03/24 00:11:56;;;;;;;;;15.50;15.50;;;;;18.31;43.73;103056.91;4930190;29;10200;-72
2022/03/24 00:14:22;;;;;;;;;19.25;16.75;;;;;18.31;43.93;103054.28;4932379;29;8797;-72
2022/03/24 00:16:48;;;;;;;;;17.75;17.75;;;;;18.31;43.67;103050.72;4937455;29;10083;-72
2022/03/24 00:19:13;;;;;;;;;19.75;15.00;;;;;18.30;43.61;103043.66;4936172;29;8898;-71
2022/03/24 00:21:38;;;;;;;;;16.00;15.25;;;;;18.27;43.76;103046.22;4936928;29;8817;-73
2022/03/24 00:24:04;;;;;;;;;19.00;17.00;;;;;18.30;43.94;103043.66;4936443;29;8789;-72
2022/03/24 00:26:29;;;;;;;;;19.25;17.00;;;;;18.28;43.95;103037.44;4935810;29;8880;-72
2022/03/24 00:28:55;;;;;;;;;16.50;16.00;;;;;18.28;43.82;103048.00;4936568;29;8845;-72
2022/03/24 00:31:20;;;;;;;;;8.25;7.50;;;;;18.28;43.79;103048.00;4935685;29;8797;-72
2022/03/24 00:33:45;;;;;;;;;16.50;16.50;;;;;18.27;43.83;103046.22;4936474;29;8805;-72
2022/03/24 00:36:11;;;;;;;;;16.75;16.75;;;;;18.28;44.07;103053.31;4936084;29;8804;-72
2022/03/24 00:38:38;;;;;;;;;18.50;16.25;;;;;18.26;43.70;103047.06;4936312;29;8810;-72
2022/03/24 00:41:03;;;;;;;;;16.75;16.50;;;;;18.28;43.83;103048.00;4936726;29;9628;-72
2022/03/24 00:43:29;;;;;;;;;20.50;19.00;;;;;18.26;43.92;103042.69;4936774;29;10088;-72
2022/03/24 00:45:55;;;;;;;;;18.25;14.50;;;;;18.22;43.65;103039.94;4935180;29;8902;-72
2022/03/24 00:48:20;;;;;;;;;19.00;19.00;;;;;18.24;43.75;103043.50;4936308;29;10212;-71
2022/03/24 00:50:46;;;;;;;;;17.75;17.75;;;;;18.24;43.87;103043.50;4936117;29;8802;-71
2022/03/24 00:53:11;;;;;;;;;22.00;18.25;;;;;18.23;44.00;103045.25;4935265;29;8790;-72
2022/03/24 00:55:39;;;;;;;;;18.75;17.75;;;;;18.23;43.92;103039.97;4936379;29;8801;-72
2022/03/24 00:58:04;;;;;;;;;21.25;20.00;;;;;18.22;43.89;103042.59;4935973;29;8806;-71
2022/03/24 01:00:30;;;;;;;;;19.00;18.25;;;;;18.22;44.10;103037.28;4935304;29;10195;-72
2022/03/24 01:02:57;;;;;;;;;22.50;19.75;;;;;18.21;43.93;103033.75;4935790;29;8790;-72
2022/03/24 01:05:29;;;;;;;;;17.75;15.50;;;;;18.20;44.04;103033.69;4935639;29;8830;-71
2022/03/24 01:07:55;;;;;;;;;19.50;16.00;;;;;18.20;44.10;103039.88;4935057;29;10026;-72
2022/03/24 01:10:22;;;;;;;;;18.00;16.00;;;;;18.20;43.77;103039.88;4936160;29;10103;-70
2022/03/24 01:12:48;;;;;;;;;18.50;18.50;;;;;18.19;44.04;103032.81;4932005;29;10105;-72
2022/03/24 01:15:17;;;;;;;;;21.50;19.00;;;;;18.19;44.03;103032.81;4935142;29;9918;-71
2022/03/24 01:17:43;;;;;;;;;17.00;17.00;;;;;18.19;43.85;103034.56;4935714;29;10007;-72
2022/03/24 01:20:10;;;;;;;;;16.00;16.00;;;;;18.21;44.05;103030.22;4935310;29;10040;-71
2022/03/24 01:22:35;;;;;;;;;15.50;15.50;;;;;18.19;44.17;103029.25;4934948;29;8794;-71
2022/03/24 01:25:01;;;;;;;;;18.50;16.00;;;;;18.17;43.87;103031.88;4935658;29;10001;-71
2022/03/24 01:27:28;;;;;;;;;17.50;16.75;;;;;18.18;43.91;103027.50;4935917;29;11612;-72
2022/03/24 01:29:54;;;;;;;;;14.75;14.75;;;;;18.19;43.99;103023.97;4934816;29;8794;-72
2022/03/24 01:32:20;;;;;;;;;20.50;19.00;;;;;18.17;43.79;103021.31;4935472;29;10818;-72
2022/03/24 01:34:46;;;;;;;;;16.50;16.50;;;;;18.17;43.91;103015.13;4935429;29;9997;-72
2022/03/24 01:37:11;;;;;;;;;17.00;14.00;;;;;18.16;43.91;103018.63;4935726;29;9920;-71
2022/03/24 01:39:38;;;;;;;;;18.25;16.50;;;;;18.15;44.08;103016.81;4935683;29;8802;-71
2022/03/24 01:42:05;;;;;;;;;17.75;17.75;;;;;18.15;43.99;103023.00;4934408;29;8832;-71
2022/03/24 01:44:33;;;;;;;;;17.75;16.25;;;;;18.14;44.25;103010.66;4935133;29;10248;-71
2022/03/24 01:47:09;;;;;;;;;18.50;17.75;;;;;18.14;43.97;103017.69;4934781;29;10428;-71
2022/03/24 01:49:40;;;;;;;;;18.75;17.75;;;;;18.14;44.02;103017.69;4934802;29;10237;-72
2022/03/24 01:52:07;;;;;;;;;17.50;17.25;;;;;18.13;44.21;103015.91;4934940;29;10219;-72
2022/03/24 01:54:33;;;;;;;;;15.00;13.25;;;;;18.13;43.84;103018.53;4935163;29;10121;-72
2022/03/24 01:57:00;;;;;;;;;20.75;17.25;;;;;18.13;43.90;103016.81;4934086;29;10177;-73
2022/03/24 01:59:25;;;;;;;;;15.00;15.00;;;;;18.11;44.22;103010.56;4935192;29;10265;-71
2022/03/24 02:01:51;;;;;;;;;15.00;14.50;;;;;18.11;44.02;103015.84;4935746;29;10256;-72
2022/03/24 02:04:19;;;;;;;;;15.50;14.75;;;;;18.11;44.22;103009.69;4934363;29;8813;-72
2022/03/24 02:06:45;;;;;;;;;15.25;15.25;;;;;18.10;44.00;103003.50;4935023;29;8833;-72
2022/03/24 02:09:12;;;;;;;;;17.25;17.25;;;;;18.10;43.89;103002.63;4935006;29;10017;-72
2022/03/24 02:11:37;;;;;;;;;16.25;14.25;;;;;18.08;44.23;103006.94;4934614;29;10025;-72
2022/03/24 02:14:04;;;;;;;;;17.75;17.50;;;;;18.09;44.45;103011.38;4932462;29;10182;-71
2022/03/24 02:16:38;;;;;;;;;16.25;16.25;;;;;18.09;44.10;103012.28;4935269;29;8802;-72
2022/03/24 02:19:34;;;;;;;;;20.00;19.00;;;;;18.08;44.24;103005.19;4934210;29;9998;-71
2022/03/24 02:22:16;;;;;;;;;16.00;14.75;;;;;18.07;44.18;103002.53;4922988;29;10198;-72
2022/03/24 02:24:41;;;;;;;;;17.25;14.75;;;;;18.07;44.10;102994.59;4934475;29;10136;-71
2022/03/24 02:27:08;;;;;;;;;16.00;15.00;;;;;18.04;44.14;103002.44;4942343;29;10140;-72
2022/03/24 02:29:35;;;;;;;;;19.25;18.25;;;;;18.05;44.19;103005.13;4938247;29;8802;-72
2022/03/24 02:32:02;;;;;;;;;19.00;19.00;;;;;18.04;44.20;102999.78;4936045;29;10185;-72
2022/03/24 02:37:28;;;;;;;;;14.25;14.25;;;;;18.04;44.17;103005.06;4875855;29;10115;-72
2022/03/24 02:39:56;;;;;;;;;19.25;16.25;;;;;18.02;44.08;102999.78;4922815;29;10037;-72
2022/03/24 02:42:25;;;;;;;;;18.25;18.00;;;;;18.02;44.35;103001.53;4949092;29;8793;-72
2022/03/24 02:44:54;;;;;;;;;17.00;15.25;;;;;18.04;44.54;103003.34;4940249;29;10150;-72
2022/03/24 02:47:20;;;;;;;;;17.25;15.50;;;;;18.02;44.03;103004.16;4934818;29;10108;-72
2022/03/24 02:49:47;;;;;;;;;18.75;16.50;;;;;18.00;44.15;103000.56;4934634;29;9926;-71
2022/03/24 02:52:13;;;;;;;;;19.00;17.50;;;;;17.99;44.18;102993.50;4933800;29;10085;-71
2022/03/24 02:54:39;;;;;;;;;14.25;13.75;;;;;17.99;43.97;102996.16;4934448;29;10192;-72
2022/03/24 02:57:06;;;;;;;;;19.75;18.25;;;;;17.99;44.36;102994.41;4934313;29;10923;-72
2022/03/24 02:59:31;;;;;;;;;14.75;14.75;;;;;17.98;44.47;103000.53;4933642;29;8794;-72
2022/03/24 03:01:59;;;;;;;;;15.00;15.00;;;;;18.01;44.41;103005.91;4933647;29;9900;-72
2022/03/24 03:04:26;;;;;;;;;15.75;15.25;;;;;18.00;44.16;103003.22;4934496;29;8805;-72
2022/03/24 03:06:54;;;;;;;;;18.50;18.25;;;;;17.98;44.20;102997.91;4933059;29;10663;-72
2022/03/24 03:09:21;;;;;;;;;14.50;14.50;;;;;17.98;44.20;103002.28;4934428;29;10200;-72
2022/03/24 03:11:47;;;;;;;;;20.00;16.75;;;;;17.97;44.19;103006.69;4933216;29;10179;-72
2022/03/24 03:14:14;;;;;;;;;15.25;12.25;;;;;17.97;44.25;103000.50;4930478;29;10154;-72
2022/03/24 03:16:41;;;;;;;;;13.00;13.00;;;;;17.96;44.51;103004.03;4934323;29;8824;-72
2022/03/24 03:19:08;;;;;;;;;14.75;14.00;;;;;17.97;44.33;103006.69;4933759;29;10133;-72
2022/03/24 03:21:35;;;;;;;;;19.00;18.75;;;;;17.96;44.38;102996.97;4933016;29;10085;-71
2022/03/24 03:24:00;;;;;;;;;15.50;14.75;;;;;17.97;44.40;103005.78;4933462;29;10871;-72
2022/03/24 03:26:28;;;;;;;;;12.50;12.25;;;;;17.95;44.27;102996.94;4933736;29;9984;-72
2022/03/24 03:28:54;;;;;;;;;17.75;16.00;;;;;17.93;44.21;103003.91;4932858;29;8785;-71
2022/03/24 03:31:20;;;;;;;;;15.00;15.00;;;;;17.95;44.53;102999.59;4934149;29;10048;-72
2022/03/24 03:33:46;;;;;;;;;18.00;18.00;;;;;17.93;44.43;103003.91;4933887;29;8917;-72
2022/03/24 03:36:11;;;;;;;;;17.50;16.50;;;;;17.91;44.31;103003.91;4932816;29;10101;-72
2022/03/24 03:38:36;;;;;;;;;19.25;16.25;;;;;17.92;44.49;103000.38;4933993;29;9502;-71
2022/03/24 03:41:05;;;;;;;;;15.00;13.25;;;;;17.92;44.35;103002.16;4933144;29;8868;-72
2022/03/24 03:43:32;;;;;;;;;15.75;14.00;;;;;17.92;44.23;103000.38;4933181;29;8810;-72
2022/03/24 03:46:01;;;;;;;;;14.75;14.50;;;;;17.90;44.25;102996.81;4933318;29;10305;-73
2022/03/24 03:48:26;;;;;;;;;17.75;17.75;;;;;17.91;44.15;103000.34;4932911;29;9936;-72
2022/03/24 03:50:52;;;;;;;;;17.75;17.25;;;;;17.91;44.10;103000.34;4933879;29;9979;-72
2022/03/24 03:53:17;;;;;;;;;15.25;14.50;;;;;17.90;44.56;103002.09;4933016;29;8814;-72
2022/03/24 03:55:43;;;;;;;;;17.75;15.50;;;;;17.91;44.21;103003.00;4932792;29;8806;-72
2022/03/24 03:58:08;;;;;;;;;13.00;13.00;;;;;17.89;44.51;102997.66;4932979;29;8825;-72
2022/03/24 04:00:53;;;;;;;;;16.25;14.00;;;;;17.90;44.78;103003.84;4933478;29;8805;-72
2022/03/24 04:03:19;;;;;;;;;15.75;14.50;;;;;17.88;44.56;102994.13;4932857;29;8937;-72
2022/03/24 04:05:44;;;;;;;;;11.00;9.50;;;;;17.87;44.67;102994.09;4933371;29;10302;-72
2022/03/24 04:08:11;;;;;;;;;14.00;14.00;;;;;17.85;44.74;102988.75;4933193;29;10159;-71
2022/03/24 04:10:38;;;;;;;;;13.75;12.25;;;;;17.86;44.78;102992.28;4932760;29;8802;-71
2022/03/24 04:13:04;;;;;;;;;14.50;14.50;;;;;17.84;44.34;102997.56;4928796;29;10205;-71
2022/03/24 04:15:34;;;;;;;;;11.75;11.50;;;;;17.84;44.56;102992.28;4933297;29;10250;-71
2022/03/24 04:18:00;;;;;;;;;14.75;14.75;;;;;17.85;44.82;102994.03;4932033;29;10020;-71
2022/03/24 04:20:26;;;;;;;;;17.75;15.00;;;;;17.85;44.64;102990.50;4933051;29;9983;-71
2022/03/24 04:22:53;;;;;;;;;15.50;14.25;;;;;17.84;44.81;102991.38;4933340;29;10094;-70
2022/03/24 04:25:21;;;;;;;;;17.50;17.50;;;;;17.82;44.70;102993.06;4932364;29;10100;-71
2022/03/24 04:27:49;;;;;;;;;17.50;16.00;;;;;17.83;44.68;102994.88;4933242;29;10034;-72
2022/03/24 04:30:17;;;;;;;;;16.25;14.25;;;;;17.82;44.73;102990.44;4932751;29;10278;-71
2022/03/24 04:32:43;;;;;;;;;11.25;11.25;;;;;17.82;44.61;102995.72;4932232;29;10181;-72
2022/03/24 04:35:09;;;;;;;;;17.00;16.00;;;;;17.81;44.74;103001.84;4932649;29;10107;-72
2022/03/24 04:37:38;;;;;;;;;15.50;15.50;;;;;17.83;44.46;102992.22;4932459;29;8825;-72
2022/03/24 04:40:06;;;;;;;;;14.00;12.75;;;;;17.81;44.57;102992.16;4932445;29;8814;-72
2022/03/24 04:42:32;;;;;;;;;15.25;15.25;;;;;17.78;44.87;102989.44;4932548;29;9988;-71
2022/03/24 04:44:57;;;;;;;;;15.00;13.75;;;;;17.80;44.70;102990.41;4932126;29;9853;-71
2022/03/24 04:47:23;;;;;;;;;12.50;12.50;;;;;17.81;44.75;102992.16;4933269;29;10607;-72
2022/03/24 04:49:48;;;;;;;;;13.25;11.00;;;;;17.78;44.66;102991.19;4933276;29;8884;-72
2022/03/24 04:52:14;;;;;;;;;16.75;15.75;;;;;17.79;44.82;103003.56;4931747;29;8793;-72
2022/03/24 04:54:39;;;;;;;;;18.50;17.75;;;;;17.79;44.71;103000.91;4933332;29;8822;-72
2022/03/24 04:57:05;;;;;;;;;15.25;14.50;;;;;17.78;44.90;103000.03;4932640;29;9558;-72
2022/03/24 04:59:30;;;;;;;;;15.25;15.25;;;;;17.79;44.82;102999.19;4932683;29;8816;-72
2022/03/24 05:01:56;;;;;;;;;14.75;13.75;;;;;17.78;44.66;103000.03;4935396;29;9652;-72
2022/03/24 05:04:23;;;;;;;;;14.50;14.50;;;;;17.77;44.58;102998.22;4936176;29;8916;-71
2022/03/24 05:06:49;;;;;;;;;16.50;15.50;;;;;17.75;44.73;103014.91;4935414;29;8928;-71
2022/03/24 05:09:14;;;;;;;;;21.75;17.00;;;;;17.75;44.94;103002.59;4936027;29;10016;-71
2022/03/24 05:11:39;;;;;;;;;14.25;13.25;;;;;17.76;44.79;103003.50;4936025;29;8802;-71
2022/03/24 05:14:08;;;;;;;;;10.50;10.50;;;;;17.77;44.81;103002.66;4931825;29;8813;-72
2022/03/24 05:16:34;;;;;;;;;12.50;12.50;;;;;17.76;44.98;103001.75;4936138;29;8871;-73
2022/03/24 05:19:00;;;;;;;;;11.25;11.25;;;;;17.71;44.68;103003.38;4935481;29;10019;-71
2022/03/24 05:21:25;;;;;;;;;18.75;15.75;;;;;17.74;45.02;103002.53;4935131;29;11613;-72
2022/03/24 05:23:50;;;;;;;;;17.25;16.75;;;;;17.75;44.99;103010.53;4936118;29;8805;-72
2022/03/24 05:26:20;;;;;;;;;12.50;11.50;;;;;17.74;44.59;103007.81;4935901;29;8821;-72
2022/03/24 05:28:46;;;;;;;;;14.50;13.25;;;;;17.74;44.83;103005.19;4936371;29;8829;-72
2022/03/24 05:31:11;;;;;;;;;15.00;14.75;;;;;17.72;44.48;103014.81;4944772;29;10093;-71
2022/03/24 05:33:36;;;;;;;;;13.75;13.00;;;;;17.71;44.74;103008.66;4943044;29;8923;-72
2022/03/24 05:36:02;;;;;;;;;15.00;12.25;;;;;17.69;44.71;103014.75;4936462;29;8908;-72
2022/03/24 05:38:28;;;;;;;;;17.50;17.50;;;;;17.72;44.55;103015.72;4936145;29;8885;-72
2022/03/24 05:40:53;;;;;;;;;11.25;11.25;;;;;17.71;44.56;103013.03;4935081;29;11597;-71
2022/03/24 05:43:19;;;;;;;;;12.50;12.50;;;;;17.71;44.90;103016.56;4936395;29;9028;-71
2022/03/24 05:45:44;;;;;;;;;16.25;15.50;;;;;17.70;44.77;103014.78;4944945;29;8824;-72
2022/03/24 05:48:09;;;;;;;;;16.75;15.25;;;;;17.69;44.71;103015.66;4944630;29;8880;-72
2022/03/24 05:50:35;;;;;;;;;13.75;13.75;;;;;17.70;44.80;103013.88;4937937;29;8786;-71
2022/03/24 05:53:00;;;;;;;;;16.75;15.00;;;;;17.69;44.55;103017.41;4936736;29;8794;-71
2022/03/24 05:55:25;;;;;;;;;13.50;13.50;;;;;17.69;44.72;103017.41;4935497;29;8821;-72
2022/03/24 05:57:51;;;;;;;;;16.00;15.25;;;;;17.69;44.85;103017.41;4935606;29;8873;-71
2022/03/24 06:00:16;;;;;;;;;8.00;8.00;;;;;17.69;44.57;103017.41;4934925;29;8806;-71
2022/03/24 06:02:43;;;;;;;;;14.50;14.50;;;;;17.68;44.51;103015.59;4934366;29;8810;-72
2022/03/24 06:05:09;;;;;;;;;13.25;12.00;;;;;17.69;44.44;103006.81;4934777;29;8873;-72
2022/03/24 06:07:36;;;;;;;;;14.75;14.75;;;;;17.69;44.32;103014.75;4935255;29;10790;-72
2022/03/24 06:10:01;;;;;;;;;13.25;12.00;;;;;17.67;44.44;103009.41;4934388;29;10014;-72
2022/03/24 06:12:26;;;;;;;;;14.50;12.00;;;;;17.68;44.67;103016.50;4930994;29;10239;-72
2022/03/24 06:14:52;;;;;;;;;16.25;15.25;;;;;17.67;44.52;103013.81;4935195;29;8805;-72
2022/03/24 06:17:20;;;;;;;;;13.50;13.50;;;;;17.66;44.78;103012.91;4934493;29;8813;-72
2022/03/24 06:19:47;;;;;;;;;12.50;11.75;;;;;17.68;44.47;103015.59;4935169;29;8806;-72
2022/03/24 06:22:13;;;;;;;;;12.75;12.75;;;;;17.67;44.71;103017.34;4935163;29;9746;-72
2022/03/24 06:24:42;;;;;;;;;13.25;13.25;;;;;17.67;44.55;103014.69;4934551;29;10113;-72
2022/03/24 06:27:12;;;;;;;;;14.00;12.25;;;;;17.65;44.43;103013.78;4934790;29;11601;-72
2022/03/24 06:29:38;;;;;;;;;11.50;10.00;;;;;17.61;44.60;103006.63;4934679;29;10086;-72
2022/03/24 06:32:05;;;;;;;;;13.75;12.25;;;;;17.66;44.66;103012.91;4933498;29;10075;-71
2022/03/24 06:34:31;;;;;;;;;15.75;14.75;;;;;17.65;44.62;103013.78;4934618;29;8884;-71
2022/03/24 06:36:56;;;;;;;;;15.50;14.50;;;;;17.67;44.57;103017.34;4934566;29;10165;-71
2022/03/24 06:39:22;;;;;;;;;15.00;15.00;;;;;17.67;44.72;103014.69;4933801;29;9562;-72
2022/03/24 06:41:48;;;;;;;;;14.00;13.75;;;;;17.68;44.58;103018.25;4934463;29;8916;-72
2022/03/24 06:44:14;;;;;;;;;15.25;14.75;;;;;17.68;44.52;103026.16;4933474;29;10047;-72
2022/03/24 06:46:40;;;;;;;;;13.00;13.00;;;;;17.68;44.29;103023.53;4934285;29;11531;-72
2022/03/24 06:49:06;;;;;;;;;16.50;13.25;;;;;17.67;44.68;103024.38;4934046;29;8828;-72
2022/03/24 06:51:33;;;;;;;;;16.00;15.75;;;;;17.70;44.63;103032.38;4934170;29;8790;-72
2022/03/24 06:53:58;;;;;;;;;16.25;16.25;;;;;17.68;44.59;103029.69;4934012;29;10066;-71
2022/03/24 06:56:24;;;;;;;;;17.00;16.00;;;;;17.67;44.66;103025.25;4934092;29;10027;-73
2022/03/24 06:58:53;;;;;;;;;14.25;13.50;;;;;17.68;44.30;103032.34;4933344;29;8825;-72
2022/03/24 07:01:19;;;;;;;;;16.50;15.00;;;;;17.73;44.22;103027.19;4934176;29;8952;-72
2022/03/24 07:03:44;;;;;;;;;16.25;15.00;;;;;17.74;44.35;103023.66;4934299;29;10071;-72
2022/03/24 07:06:10;;;;;;;;;17.00;15.25;;;;;17.77;44.32;103029.06;4932957;29;10155;-78
2022/03/24 07:08:36;;;;;;;;;18.00;17.75;;;;;17.82;45.12;103015.09;4934605;29;8852;-81
2022/03/24 07:11:04;;;;;;;;;13.75;13.00;;;;;17.95;46.33;103028.66;4934258;29;8934;-79
2022/03/24 07:13:30;;;;;;;;;16.75;14.75;;;;;18.05;46.81;103028.03;4929763;29;8908;-78
2022/03/24 07:15:55;;;;;;;;;15.75;14.75;;;;;18.11;48.24;103023.78;4934145;29;10098;-80
2022/03/24 07:18:20;;;;;;;;;12.00;11.75;;;;;18.16;49.24;103032.72;4934538;29;11603;-78
2022/03/24 07:20:46;;;;;;;;;16.00;14.00;;;;;18.23;52.38;103036.41;4933707;29;9668;-72
2022/03/24 07:23:11;;;;;;;;;21.75;16.00;;;;;18.30;51.29;103041.91;4933268;29;9000;-73
2022/03/24 07:25:36;;;;;;;;;17.75;16.25;;;;;18.35;51.80;103037.63;4933974;29;8820;-73
2022/03/24 07:28:04;;;;;;;;;18.00;16.75;;;;;18.34;52.32;103045.50;4932482;29;8825;-71
2022/03/24 07:30:30;;;;;;;;;12.75;12.00;;;;;18.32;53.97;103048.13;4933736;29;8818;-70
2022/03/24 07:32:56;;;;;;;;;13.75;12.00;;;;;18.29;53.41;103041.88;4933580;29;10141;-70
2022/03/24 07:35:24;;;;;;;;;16.50;16.50;;;;;18.28;54.07;103043.63;4904739;29;8854;-70
2022/03/24 07:37:50;;;;;;;;;16.25;16.00;;;;;18.28;53.76;103048.91;4914362;29;8816;-70
2022/03/24 07:40:18;;;;;;;;;16.50;15.00;;;;;18.27;53.50;103051.50;4914316;29;10157;-70
2022/03/24 07:42:46;;;;;;;;;19.00;17.25;;;;;18.29;53.04;103052.47;4913920;29;10075;-71
2022/03/24 07:45:12;;;;;;;;;16.75;16.75;;;;;18.27;53.38;103054.16;4914332;29;10097;-71
2022/03/24 07:48:07;;;;;;;;;19.50;19.00;;;;;18.27;52.90;103060.34;4913702;29;10939;-71
2022/03/24 07:50:33;;;;;;;;;20.00;19.00;;;;;18.26;52.41;103053.25;4914586;29;8788;-70
2022/03/24 07:53:13;;;;;;;;;18.50;16.50;;;;;18.25;52.28;103059.41;4913225;29;10410;-71
2022/03/24 07:55:41;;;;;;;;;19.00;16.25;;;;;18.27;51.84;103059.44;4912283;29;11073;-71
2022/03/24 07:58:07;;;;;;;;;24.50;21.75;;;;;18.26;51.85;103058.53;4912911;29;10266;-71
2022/03/24 08:00:32;;;;;;;;;22.50;22.50;;;;;18.27;51.76;103059.44;4913335;29;11168;-71
2022/03/24 08:02:57;;;;;;;;;21.00;19.50;;;;;18.26;51.38;103057.63;4912427;29;8865;-71
2022/03/24 08:05:22;;;;;;;;;21.50;20.25;;;;;18.27;51.24;103062.97;4912269;29;8955;-71
2022/03/24 08:07:48;;;;;;;;;24.25;21.50;;;;;18.26;51.24;103063.81;4913095;29;8864;-73
2022/03/24 08:10:13;;;;;;;;;22.25;19.00;;;;;18.27;50.93;103067.38;4912433;29;8833;-71
2022/03/24 08:12:38;;;;;;;;;28.75;27.25;;;;;18.28;50.53;103070.06;4917760;29;8836;-70
2022/03/24 08:15:04;;;;;;;;;21.25;19.75;;;;;18.27;50.32;103062.09;4913587;29;8832;-71
2022/03/24 08:17:29;;;;;;;;;24.00;22.50;;;;;18.27;50.11;103067.38;4912694;29;8816;-70
2022/03/24 08:19:54;;;;;;;;;17.25;17.25;;;;;18.29;50.29;103070.97;4913048;29;8822;-70
2022/03/24 08:22:20;;;;;;;;;22.50;21.75;;;;;18.28;48.96;103070.06;4912862;29;8820;-70
2022/03/24 08:24:45;;;;;;;;;21.50;21.00;;;;;18.29;49.62;103070.97;4910137;29;8954;-70
2022/03/24 08:27:10;;;;;;;;;18.75;18.75;;;;;18.28;49.77;103072.72;4913034;29;8836;-69
2022/03/24 08:29:36;;;;;;;;;23.00;21.25;;;;;18.28;49.36;103075.34;4912508;29;8838;-70
2022/03/24 08:32:01;;;;;;;;;19.75;19.75;;;;;18.29;49.40;103077.16;4913424;29;9580;-70
2022/03/24 08:34:27;;;;;;;;;24.25;22.75;;;;;18.30;48.83;103078.03;4919823;29;8832;-70
2022/03/24 08:36:52;;;;;;;;;23.50;22.25;;;;;18.29;48.85;103077.16;4922787;29;8836;-70
2022/03/24 08:39:17;;;;;;;;;22.75;22.75;;;;;18.33;48.12;103088.72;4918280;29;8836;-71
2022/03/24 08:41:42;;;;;;;;;22.50;22.50;;;;;18.35;48.26;103093.16;4917307;29;8870;-70
2022/03/24 08:44:08;;;;;;;;;25.50;20.50;;;;;18.38;47.90;103091.44;4915139;29;8856;-72
2022/03/24 08:46:33;;;;;;;;;28.75;27.25;;;;;18.38;47.51;103092.34;4917246;29;8924;-71
2022/03/24 08:48:59;;;;;;;;;26.50;24.50;;;;;18.38;47.64;103089.69;4919039;29;8846;-71
2022/03/24 08:51:24;;;;;;;;;25.50;24.00;;;;;18.40;47.13;103087.09;4920571;29;8891;-72
2022/03/24 08:53:49;;;;;;;;;20.50;20.50;;;;;18.40;46.92;103085.34;4918221;29;8927;-71
2022/03/24 08:56:15;;;;;;;;;19.00;17.50;;;;;18.42;46.47;103088.91;4915356;29;8916;-71
2022/03/24 08:58:40;;;;;;;;;19.00;18.25;;;;;18.44;46.24;103089.88;4916274;29;8844;-72
2022/03/24 09:01:05;;;;;;;;;26.50;23.25;;;;;18.47;46.55;103089.94;4916505;29;8847;-71
2022/03/24 09:03:31;;;;;;;;;24.50;23.50;;;;;18.47;46.31;103078.47;4916713;29;8824;-70
2022/03/24 09:05:56;;;;;;;;;24.75;24.25;;;;;18.52;45.97;103088.31;4914479;29;8836;-70
2022/03/24 09:08:21;;;;;;;;;25.25;22.75;;;;;18.52;45.89;103096.25;4916900;29;8859;-70
2022/03/24 09:10:50;;;;;;;;;28.25;25.25;;;;;18.53;45.71;103106.00;4916109;29;9705;-70
2022/03/24 09:13:15;;;;;;;;;25.75;24.75;;;;;18.56;45.41;103099.91;4918513;29;8796;-70
2022/03/24 09:15:43;;;;;;;;;26.00;23.00;;;;;18.54;45.16;103091.91;4915495;29;11040;-69
2022/03/24 09:18:10;;;;;;;;;27.00;23.50;;;;;18.57;45.18;103099.03;4916013;29;8836;-70
2022/03/24 09:20:35;;;;;;;;;21.00;21.00;;;;;18.56;44.83;103098.13;4915368;29;10281;-69
2022/03/24 09:23:00;;;;;;;;;20.75;19.00;;;;;18.55;44.75;103099.00;4917529;29;10547;-71
2022/03/24 09:25:26;;;;;;;;;29.00;23.25;;;;;18.56;44.12;103107.84;4915768;29;8836;-73
2022/03/24 09:27:51;;;;;;;;;25.00;22.50;;;;;18.54;44.51;103099.84;4915197;29;8922;-73
2022/03/24 09:30:18;;;;;;;;;26.25;25.00;;;;;18.55;44.24;103103.41;4916117;29;8812;-73
2022/03/24 09:32:45;;;;;;;;;27.50;26.50;;;;;18.54;44.33;103097.19;4916319;29;8821;-73
2022/03/24 09:35:11;;;;;;;;;26.25;25.50;;;;;18.59;43.97;103106.16;4914461;29;10430;-72
2022/03/24 09:37:37;;;;;;;;;28.75;26.00;;;;;18.59;43.76;103102.63;4915408;29;10807;-73
2022/03/24 09:40:05;;;;;;;;;28.25;27.50;;;;;18.59;43.95;103106.16;4915977;29;10491;-72
2022/03/24 09:42:31;;;;;;;;;22.75;21.00;;;;;18.60;43.90;103101.72;4916043;29;8862;-72
2022/03/24 09:45:00;;;;;;;;;29.00;28.00;;;;;18.61;43.33;103099.13;4914412;29;10448;-73
2022/03/24 09:47:26;;;;;;;;;23.75;23.25;;;;;18.63;43.41;103107.13;4914751;29;10644;-71
2022/03/24 09:49:52;;;;;;;;;25.00;22.25;;;;;18.64;42.90;103100.97;4915628;29;10423;-72
2022/03/24 09:52:17;;;;;;;;;31.00;25.25;;;;;18.63;43.19;103096.53;4915143;29;10503;-73
2022/03/24 09:54:45;;;;;;;;;23.50;20.25;;;;;18.64;43.33;103096.56;4913639;29;8855;-71
2022/03/24 09:57:10;;;;;;;;;21.00;19.25;;;;;18.65;43.08;103092.16;4915419;29;8820;-72
2022/03/24 09:59:36;;;;;;;;;30.25;28.00;;;;;18.66;42.98;103097.50;4916321;29;10474;-72
2022/03/24 10:02:04;;;;;;;;;29.25;28.00;;;;;18.70;41.24;103098.47;4914895;29;8816;-73
2022/03/24 10:04:46;;;;;;;;;23.25;23.00;;;;;18.71;42.29;103092.31;4914211;29;10635;-71
2022/03/24 10:07:11;;;;;;;;;22.75;21.50;;;;;18.70;42.29;103093.19;4914616;29;10508;-70
2022/03/24 10:09:43;;;;;;;;;26.00;23.75;;;;;18.71;42.36;103102.88;4914672;29;10582;-70
2022/03/24 10:12:26;;;;;;;;;25.25;23.00;;;;;18.70;41.40;103096.72;4915378;29;8812;-72
2022/03/24 10:15:09;;;;;;;;;27.75;25.75;;;;;18.72;41.86;103097.66;4908678;29;10494;-72
2022/03/24 10:17:38;;;;;;;;;24.00;24.00;;;;;18.73;41.94;103096.81;4915315;29;10452;-72
2022/03/24 10:20:12;;;;;;;;;28.50;26.75;;;;;18.73;41.59;103090.59;4915044;29;10445;-72
2022/03/24 10:22:37;;;;;;;;;28.00;28.00;;;;;18.72;41.19;103092.34;4914969;29;10376;-72
2022/03/24 10:25:17;;;;;;;;;23.25;21.00;;;;;18.74;41.38;103090.66;4913488;29;10450;-72
2022/03/24 10:27:43;;;;;;;;;24.50;22.50;;;;;18.77;41.76;103089.81;4914805;29;8844;-72
2022/03/24 10:30:10;;;;;;;;;22.00;21.00;;;;;18.76;41.42;103088.94;4913841;29;10296;-73
2022/03/24 10:32:35;;;;;;;;;25.25;21.00;;;;;18.77;41.05;103081.88;4915242;29;8865;-72
2022/03/24 10:35:12;;;;;;;;;20.25;18.25;;;;;18.80;41.40;103092.53;4913267;29;10407;-72
2022/03/24 10:37:37;;;;;;;;;27.75;25.25;;;;;18.79;40.95;103094.28;4906944;29;9596;-74
2022/03/24 10:40:10;;;;;;;;;24.00;23.00;;;;;18.81;40.83;103089.03;4914591;29;10396;-73
2022/03/24 10:42:38;;;;;;;;;21.75;17.75;;;;;18.81;40.72;103089.94;4914628;29;8854;-73
2022/03/24 10:45:23;;;;;;;;;24.75;23.50;;;;;18.83;40.86;103092.59;4912760;29;10419;-72
2022/03/24 10:47:56;;;;;;;;;22.25;22.25;;;;;18.84;40.44;103094.41;4914244;29;10294;-73
2022/03/24 10:50:40;;;;;;;;;23.00;21.75;;;;;18.86;40.08;103094.44;4913942;29;10241;-72
2022/03/24 10:53:10;;;;;;;;;27.25;25.25;;;;;18.85;40.57;103085.63;4914176;29;10508;-72
2022/03/24 10:55:40;;;;;;;;;27.50;23.25;;;;;18.87;40.31;103085.63;4913891;29;10552;-71
2022/03/24 10:58:29;;;;;;;;;26.25;26.25;;;;;18.89;40.62;103089.22;4912685;29;10374;-71
2022/03/24 11:00:58;;;;;;;;;22.00;20.00;;;;;18.89;40.17;103087.47;4913719;29;10401;-72
2022/03/24 11:03:24;;;;;;;;;21.75;20.75;;;;;18.90;40.23;103077.75;4913946;29;10077;-71
2022/03/24 11:05:49;;;;;;;;;22.75;21.50;;;;;18.91;39.76;103083.09;4912781;29;10465;-72
2022/03/24 11:08:17;;;;;;;;;22.25;21.50;;;;;18.93;39.94;103084.03;4913952;29;9600;-72
2022/03/24 11:10:49;;;;;;;;;22.00;21.50;;;;;18.95;39.98;103081.41;4913655;29;8843;-72
2022/03/24 11:13:30;;;;;;;;;22.50;19.50;;;;;18.97;39.92;103082.34;4915847;29;10514;-72
2022/03/24 11:15:56;;;;;;;;;20.00;19.50;;;;;18.97;39.95;103079.72;4927737;29;10347;-73
2022/03/24 11:18:23;;;;;;;;;27.00;25.75;;;;;19.00;40.08;103085.06;4933239;29;10359;-73